Kinistino, Canada
Current Conditions -  °F | °C
As of 10:00 AM on Saturday 25 Oct 2014 (Local Time) from CYPA Reporting Station
Few Clouds Few Clouds  
Wind Chill: 35°   Ceiling: Unl
Heat Index: 41°   Visibility: 15mi
Dew Point: 30°   Wind: 10mph
Humidity: 65%   Direction: 300°WNW
Pressure: 30.01"   Gusts: NA
Location:  52.95°N, 105.03°W
Report Text: CYPA 251600Z 30009KT 15SM FEW120 FEW250 05/M01 A3001 RMK AC1CI1 AC TR CI TR SLP179
Loading
Personal Weather Stations






























Interactive Weather Map
Tropical Storm Tracking
New forecast layout! Learn more

10-Day Weather Forecast

Advertisements
Track Severe Weather on mobile